Terminal Aerodrome Forecast
Issued by NWS

Home | Current Version | Previous Version | Text Only | Print | Product List | Glossary On
Versions: 1 2 3 4 5 6 7 8 9 10 11 12 13
000
FTUS45 KTFX 221100
TAFBZN
TAF
KBZN 221127Z 2212/2312 VRB05KT P6SM VCSH SCT040 BKN070
      TEMPO 2214/2218 -SHRA BKN040
     FM222000 23008KT P6SM VCTS SCT050CB BKN080
     FM230200 VRB05KT P6SM VCSH SCT060 BKN090
     FM230600 15005KT P6SM SCT080 BKN180=

USA.gov is the U.S. government's official web portal to all federal, state and local government web resources and services.